sensor_id;sensor_type;location;lat;lon;timestamp;P1;durP1;ratioP1;P2;durP2;ratioP2
49840;SDS011;35738;49.890;5.930;2023-05-10T00:00:21;11.77;;;6.57;;
49840;SDS011;35738;49.890;5.930;2023-05-10T00:02:48;9.93;;;7.13;;
49840;SDS011;35738;49.890;5.930;2023-05-10T00:05:16;11.43;;;6.15;;
49840;SDS011;35738;49.890;5.930;2023-05-10T00:07:42;13.68;;;7.00;;
49840;SDS011;35738;49.890;5.930;2023-05-10T00:10:11;14.63;;;6.60;;
49840;SDS011;35738;49.890;5.930;2023-05-10T00:12:39;9.48;;;6.70;;
49840;SDS011;35738;49.890;5.930;2023-05-10T00:15:05;13.35;;;6.75;;
49840;SDS011;35738;49.890;5.930;2023-05-10T00:17:32;10.18;;;6.18;;
49840;SDS011;35738;49.890;5.930;2023-05-10T00:20:00;13.80;;;6.63;;
49840;SDS011;35738;49.890;5.930;2023-05-10T00:22:27;11.57;;;6.40;;
49840;SDS011;35738;49.890;5.930;2023-05-10T00:24:53;18.45;;;6.82;;
49840;SDS011;35738;49.890;5.930;2023-05-10T00:27:20;9.80;;;5.95;;
49840;SDS011;35738;49.890;5.930;2023-05-10T00:29:46;12.65;;;6.50;;
49840;SDS011;35738;49.890;5.930;2023-05-10T00:32:13;13.38;;;6.88;;
49840;SDS011;35738;49.890;5.930;2023-05-10T00:34:40;14.48;;;6.00;;
49840;SDS011;35738;49.890;5.930;2023-05-10T00:37:06;12.02;;;6.43;;
49840;SDS011;35738;49.890;5.930;2023-05-10T00:39:33;10.20;;;6.22;;
49840;SDS011;35738;49.890;5.930;2023-05-10T00:42:00;11.23;;;6.53;;
49840;SDS011;35738;49.890;5.930;2023-05-10T00:44:26;9.93;;;6.55;;
49840;SDS011;35738;49.890;5.930;2023-05-10T00:46:53;14.50;;;7.20;;
49840;SDS011;35738;49.890;5.930;2023-05-10T00:49:20;13.40;;;6.93;;
49840;SDS011;35738;49.890;5.930;2023-05-10T00:51:47;16.77;;;7.03;;
49840;SDS011;35738;49.890;5.930;2023-05-10T00:54:15;12.75;;;6.97;;
49840;SDS011;35738;49.890;5.930;2023-05-10T00:56:42;12.02;;;6.85;;
49840;SDS011;35738;49.890;5.930;2023-05-10T00:59:17;12.30;;;7.07;;
49840;SDS011;35738;49.890;5.930;2023-05-10T01:01:45;13.38;;;7.30;;
49840;SDS011;35738;49.890;5.930;2023-05-10T01:04:12;12.85;;;7.47;;
49840;SDS011;35738;49.890;5.930;2023-05-10T01:06:40;11.80;;;6.63;;
49840;SDS011;35738;49.890;5.930;2023-05-10T01:09:07;16.50;;;7.43;;
49840;SDS011;35738;49.890;5.930;2023-05-10T01:11:34;14.68;;;7.30;;
49840;SDS011;35738;49.890;5.930;2023-05-10T01:14:02;13.65;;;7.32;;
49840;SDS011;35738;49.890;5.930;2023-05-10T01:16:29;13.82;;;7.63;;
49840;SDS011;35738;49.890;5.930;2023-05-10T01:19:01;15.90;;;7.28;;
49840;SDS011;35738;49.890;5.930;2023-05-10T01:21:38;15.57;;;6.78;;
49840;SDS011;35738;49.890;5.930;2023-05-10T01:40:51;16.55;;;5.82;;
49840;SDS011;35738;49.890;5.930;2023-05-10T01:43:41;7.00;;;5.28;;
49840;SDS011;35738;49.890;5.930;2023-05-10T01:46:16;13.73;;;6.20;;
49840;SDS011;35738;49.890;5.930;2023-05-10T01:48:51;13.80;;;5.78;;
49840;SDS011;35738;49.890;5.930;2023-05-10T01:51:21;12.23;;;5.57;;
49840;SDS011;35738;49.890;5.930;2023-05-10T01:53:50;13.52;;;6.13;;
49840;SDS011;35738;49.890;5.930;2023-05-10T01:56:21;14.27;;;6.10;;
49840;SDS011;35738;49.890;5.930;2023-05-10T01:58:51;10.43;;;5.47;;
49840;SDS011;35738;49.890;5.930;2023-05-10T02:01:20;12.18;;;6.60;;
49840;SDS011;35738;49.890;5.930;2023-05-10T02:03:48;16.25;;;6.75;;
49840;SDS011;35738;49.890;5.930;2023-05-10T02:06:18;14.63;;;6.80;;
49840;SDS011;35738;49.890;5.930;2023-05-10T02:08:46;14.50;;;6.70;;
49840;SDS011;35738;49.890;5.930;2023-05-10T02:11:15;11.60;;;6.20;;
49840;SDS011;35738;49.890;5.930;2023-05-10T02:13:44;11.98;;;5.93;;
49840;SDS011;35738;49.890;5.930;2023-05-10T02:16:13;14.52;;;6.95;;
49840;SDS011;35738;49.890;5.930;2023-05-10T02:18:42;16.60;;;6.50;;
49840;SDS011;35738;49.890;5.930;2023-05-10T02:21:10;11.15;;;6.10;;
49840;SDS011;35738;49.890;5.930;2023-05-10T02:23:38;10.73;;;6.18;;
49840;SDS011;35738;49.890;5.930;2023-05-10T02:26:05;12.13;;;6.30;;
49840;SDS011;35738;49.890;5.930;2023-05-10T02:28:32;12.35;;;6.50;;
49840;SDS011;35738;49.890;5.930;2023-05-10T02:31:01;12.23;;;6.78;;
49840;SDS011;35738;49.890;5.930;2023-05-10T02:33:28;14.40;;;6.15;;
49840;SDS011;35738;49.890;5.930;2023-05-10T02:35:56;15.10;;;6.35;;
49840;SDS011;35738;49.890;5.930;2023-05-10T02:38:23;10.70;;;6.47;;
49840;SDS011;35738;49.890;5.930;2023-05-10T02:40:52;10.40;;;5.65;;
49840;SDS011;35738;49.890;5.930;2023-05-10T02:43:21;12.35;;;5.93;;
49840;SDS011;35738;49.890;5.930;2023-05-10T02:45:49;13.30;;;6.00;;
49840;SDS011;35738;49.890;5.930;2023-05-10T02:48:16;9.23;;;6.03;;
49840;SDS011;35738;49.890;5.930;2023-05-10T02:50:44;13.85;;;6.70;;
49840;SDS011;35738;49.890;5.930;2023-05-10T02:53:14;15.05;;;6.15;;
49840;SDS011;35738;49.890;5.930;2023-05-10T02:55:42;10.43;;;6.10;;
49840;SDS011;35738;49.890;5.930;2023-05-10T02:58:12;10.65;;;6.32;;
49840;SDS011;35738;49.890;5.930;2023-05-10T03:00:39;12.63;;;6.03;;
49840;SDS011;35738;49.890;5.930;2023-05-10T03:03:06;12.30;;;5.53;;
49840;SDS011;35738;49.890;5.930;2023-05-10T03:05:33;11.70;;;5.57;;
49840;SDS011;35738;49.890;5.930;2023-05-10T03:07:59;9.02;;;5.60;;
49840;SDS011;35738;49.890;5.930;2023-05-10T03:10:29;9.43;;;5.60;;
49840;SDS011;35738;49.890;5.930;2023-05-10T03:13:19;11.90;;;5.65;;
49840;SDS011;35738;49.890;5.930;2023-05-10T03:16:06;11.60;;;5.63;;
49840;SDS011;35738;49.890;5.930;2023-05-10T03:21:11;8.43;;;5.00;;
49840;SDS011;35738;49.890;5.930;2023-05-10T03:23:41;8.45;;;5.10;;
49840;SDS011;35738;49.890;5.930;2023-05-10T03:26:12;12.93;;;5.20;;
49840;SDS011;35738;49.890;5.930;2023-05-10T03:28:49;10.70;;;4.97;;
49840;SDS011;35738;49.890;5.930;2023-05-10T03:31:17;8.57;;;5.07;;
49840;SDS011;35738;49.890;5.930;2023-05-10T03:33:47;15.90;;;10.90;;
49840;SDS011;35738;49.890;5.930;2023-05-10T03:36:14;10.40;;;6.97;;
49840;SDS011;35738;49.890;5.930;2023-05-10T03:38:41;9.93;;;5.65;;
49840;SDS011;35738;49.890;5.930;2023-05-10T03:41:07;12.70;;;5.88;;
49840;SDS011;35738;49.890;5.930;2023-05-10T03:43:34;12.30;;;5.57;;
49840;SDS011;35738;49.890;5.930;2023-05-10T03:46:01;13.55;;;5.18;;
49840;SDS011;35738;49.890;5.930;2023-05-10T03:48:29;9.95;;;5.20;;
49840;SDS011;35738;49.890;5.930;2023-05-10T03:50:56;12.32;;;5.43;;
49840;SDS011;35738;49.890;5.930;2023-05-10T03:53:23;11.18;;;5.07;;
49840;SDS011;35738;49.890;5.930;2023-05-10T03:55:50;10.93;;;5.10;;
49840;SDS011;35738;49.890;5.930;2023-05-10T03:58:17;23.52;;;13.63;;
49840;SDS011;35738;49.890;5.930;2023-05-10T04:00:44;9.88;;;4.88;;
49840;SDS011;35738;49.890;5.930;2023-05-10T04:03:11;7.07;;;4.55;;
49840;SDS011;35738;49.890;5.930;2023-05-10T04:05:39;11.05;;;4.95;;
49840;SDS011;35738;49.890;5.930;2023-05-10T04:08:06;10.00;;;4.15;;
49840;SDS011;35738;49.890;5.930;2023-05-10T04:10:33;7.45;;;4.15;;
49840;SDS011;35738;49.890;5.930;2023-05-10T04:13:00;8.23;;;4.20;;
49840;SDS011;35738;49.890;5.930;2023-05-10T04:15:27;13.07;;;4.55;;
49840;SDS011;35738;49.890;5.930;2023-05-10T04:17:53;11.80;;;4.20;;
49840;SDS011;35738;49.890;5.930;2023-05-10T04:20:20;5.55;;;3.30;;
49840;SDS011;35738;49.890;5.930;2023-05-10T04:22:46;6.93;;;3.40;;
49840;SDS011;35738;49.890;5.930;2023-05-10T04:25:13;3.53;;;2.70;;
49840;SDS011;35738;49.890;5.930;2023-05-10T04:27:40;3.75;;;2.67;;
49840;SDS011;35738;49.890;5.930;2023-05-10T04:30:25;2.50;;;2.30;;
49840;SDS011;35738;49.890;5.930;2023-05-10T04:32:56;1.73;;;1.60;;
49840;SDS011;35738;49.890;5.930;2023-05-10T04:35:25;2.28;;;2.10;;
49840;SDS011;35738;49.890;5.930;2023-05-10T04:38:07;4.05;;;1.90;;
49840;SDS011;35738;49.890;5.930;2023-05-10T04:40:35;7.10;;;3.22;;
49840;SDS011;35738;49.890;5.930;2023-05-10T04:43:03;4.07;;;3.70;;
49840;SDS011;35738;49.890;5.930;2023-05-10T04:45:30;2.55;;;1.90;;
49840;SDS011;35738;49.890;5.930;2023-05-10T04:47:58;1.50;;;1.40;;
49840;SDS011;35738;49.890;5.930;2023-05-10T04:50:26;1.92;;;1.20;;
49840;SDS011;35738;49.890;5.930;2023-05-10T04:52:53;18.50;;;11.05;;
49840;SDS011;35738;49.890;5.930;2023-05-10T04:55:20;3.63;;;3.17;;
49840;SDS011;35738;49.890;5.930;2023-05-10T04:57:47;1.85;;;1.45;;
49840;SDS011;35738;49.890;5.930;2023-05-10T05:00:14;1.48;;;1.38;;
49840;SDS011;35738;49.890;5.930;2023-05-10T05:02:42;1.40;;;1.30;;
49840;SDS011;35738;49.890;5.930;2023-05-10T05:05:11;1.10;;;1.10;;
49840;SDS011;35738;49.890;5.930;2023-05-10T05:07:38;1.58;;;1.48;;
49840;SDS011;35738;49.890;5.930;2023-05-10T05:10:05;1.30;;;1.20;;
49840;SDS011;35738;49.890;5.930;2023-05-10T05:12:33;9.63;;;6.47;;
49840;SDS011;35738;49.890;5.930;2023-05-10T05:15:08;3.28;;;1.58;;
49840;SDS011;35738;49.890;5.930;2023-05-10T05:17:36;3.92;;;1.50;;
49840;SDS011;35738;49.890;5.930;2023-05-10T05:20:02;1.55;;;1.00;;
49840;SDS011;35738;49.890;5.930;2023-05-10T05:22:29;0.68;;;0.68;;
49840;SDS011;35738;49.890;5.930;2023-05-10T05:24:56;1.67;;;0.80;;
49840;SDS011;35738;49.890;5.930;2023-05-10T05:27:24;1.00;;;0.80;;
49840;SDS011;35738;49.890;5.930;2023-05-10T05:29:55;0.82;;;0.82;;
49840;SDS011;35738;49.890;5.930;2023-05-10T05:32:23;1.80;;;0.80;;
49840;SDS011;35738;49.890;5.930;2023-05-10T05:34:50;0.77;;;0.77;;
49840;SDS011;35738;49.890;5.930;2023-05-10T05:37:18;0.80;;;0.80;;
49840;SDS011;35738;49.890;5.930;2023-05-10T05:39:54;1.58;;;0.90;;
49840;SDS011;35738;49.890;5.930;2023-05-10T05:42:21;0.90;;;0.88;;
49840;SDS011;35738;49.890;5.930;2023-05-10T05:44:48;1.35;;;1.17;;
49840;SDS011;35738;49.890;5.930;2023-05-10T05:47:15;0.80;;;0.80;;
49840;SDS011;35738;49.890;5.930;2023-05-10T05:49:41;0.98;;;0.85;;
49840;SDS011;35738;49.890;5.930;2023-05-10T05:52:08;1.10;;;1.10;;
49840;SDS011;35738;49.890;5.930;2023-05-10T05:54:34;1.85;;;1.00;;
49840;SDS011;35738;49.890;5.930;2023-05-10T05:57:01;1.00;;;1.00;;
49840;SDS011;35738;49.890;5.930;2023-05-10T05:59:27;1.27;;;1.17;;
49840;SDS011;35738;49.890;5.930;2023-05-10T06:01:54;0.95;;;0.95;;
49840;SDS011;35738;49.890;5.930;2023-05-10T06:04:21;1.40;;;1.10;;
49840;SDS011;35738;49.890;5.930;2023-05-10T06:06:48;1.05;;;0.95;;
49840;SDS011;35738;49.890;5.930;2023-05-10T06:09:15;5.45;;;4.47;;
49840;SDS011;35738;49.890;5.930;2023-05-10T06:11:42;2.95;;;2.35;;
49840;SDS011;35738;49.890;5.930;2023-05-10T06:14:16;1.48;;;1.23;;
49840;SDS011;35738;49.890;5.930;2023-05-10T06:16:48;1.23;;;1.20;;
49840;SDS011;35738;49.890;5.930;2023-05-10T06:19:17;1.08;;;0.98;;
49840;SDS011;35738;49.890;5.930;2023-05-10T06:21:43;1.02;;;1.02;;
49840;SDS011;35738;49.890;5.930;2023-05-10T06:24:10;1.40;;;1.30;;
49840;SDS011;35738;49.890;5.930;2023-05-10T06:26:36;1.20;;;1.20;;
49840;SDS011;35738;49.890;5.930;2023-05-10T06:29:03;1.77;;;1.20;;
49840;SDS011;35738;49.890;5.930;2023-05-10T06:31:30;1.48;;;1.30;;
49840;SDS011;35738;49.890;5.930;2023-05-10T06:33:57;1.42;;;1.40;;
49840;SDS011;35738;49.890;5.930;2023-05-10T06:36:24;1.25;;;1.17;;
49840;SDS011;35738;49.890;5.930;2023-05-10T06:38:52;1.05;;;1.05;;
49840;SDS011;35738;49.890;5.930;2023-05-10T06:41:19;1.58;;;1.20;;
49840;SDS011;35738;49.890;5.930;2023-05-10T06:43:49;1.33;;;1.23;;
49840;SDS011;35738;49.890;5.930;2023-05-10T06:46:17;1.30;;;1.20;;
49840;SDS011;35738;49.890;5.930;2023-05-10T06:48:45;1.67;;;1.30;;
49840;SDS011;35738;49.890;5.930;2023-05-10T06:51:11;1.00;;;1.00;;
49840;SDS011;35738;49.890;5.930;2023-05-10T06:53:38;1.63;;;1.30;;
49840;SDS011;35738;49.890;5.930;2023-05-10T06:56:04;1.20;;;1.10;;
49840;SDS011;35738;49.890;5.930;2023-05-10T06:58:31;2.33;;;1.17;;
49840;SDS011;35738;49.890;5.930;2023-05-10T07:01:05;1.25;;;1.20;;
49840;SDS011;35738;49.890;5.930;2023-05-10T07:03:32;1.30;;;1.20;;
49840;SDS011;35738;49.890;5.930;2023-05-10T07:06:04;6.15;;;4.30;;
49840;SDS011;35738;49.890;5.930;2023-05-10T07:08:41;7.88;;;5.82;;
49840;SDS011;35738;49.890;5.930;2023-05-10T07:11:07;1.52;;;1.40;;
49840;SDS011;35738;49.890;5.930;2023-05-10T07:13:35;1.83;;;1.33;;
49840;SDS011;35738;49.890;5.930;2023-05-10T07:16:02;1.60;;;1.50;;
49840;SDS011;35738;49.890;5.930;2023-05-10T07:18:29;1.52;;;1.42;;
49840;SDS011;35738;49.890;5.930;2023-05-10T07:20:56;1.60;;;1.50;;
49840;SDS011;35738;49.890;5.930;2023-05-10T07:23:23;1.30;;;1.20;;
49840;SDS011;35738;49.890;5.930;2023-05-10T07:25:50;1.30;;;1.20;;
49840;SDS011;35738;49.890;5.930;2023-05-10T07:28:20;1.67;;;1.50;;
49840;SDS011;35738;49.890;5.930;2023-05-10T07:30:47;1.25;;;1.20;;
49840;SDS011;35738;49.890;5.930;2023-05-10T07:33:14;2.50;;;1.33;;
49840;SDS011;35738;49.890;5.930;2023-05-10T07:35:42;2.67;;;1.70;;
49840;SDS011;35738;49.890;5.930;2023-05-10T07:38:10;3.78;;;2.70;;
49840;SDS011;35738;49.890;5.930;2023-05-10T07:40:37;3.42;;;3.13;;
49840;SDS011;35738;49.890;5.930;2023-05-10T07:43:05;1.42;;;1.10;;
49840;SDS011;35738;49.890;5.930;2023-05-10T07:45:32;1.45;;;1.23;;
49840;SDS011;35738;49.890;5.930;2023-05-10T07:47:59;1.10;;;1.10;;
49840;SDS011;35738;49.890;5.930;2023-05-10T07:50:26;1.75;;;1.40;;
49840;SDS011;35738;49.890;5.930;2023-05-10T07:52:53;2.05;;;1.17;;
49840;SDS011;35738;49.890;5.930;2023-05-10T07:55:20;1.88;;;1.40;;
49840;SDS011;35738;49.890;5.930;2023-05-10T07:57:49;2.90;;;1.40;;
49840;SDS011;35738;49.890;5.930;2023-05-10T08:00:19;1.50;;;1.40;;
49840;SDS011;35738;49.890;5.930;2023-05-10T08:02:47;14.00;;;8.82;;
49840;SDS011;35738;49.890;5.930;2023-05-10T08:05:14;2.92;;;2.10;;
49840;SDS011;35738;49.890;5.930;2023-05-10T08:07:41;1.70;;;1.30;;
49840;SDS011;35738;49.890;5.930;2023-05-10T08:10:08;0.80;;;0.80;;
49840;SDS011;35738;49.890;5.930;2023-05-10T08:12:39;1.17;;;0.90;;
49840;SDS011;35738;49.890;5.930;2023-05-10T08:15:06;0.80;;;0.80;;
49840;SDS011;35738;49.890;5.930;2023-05-10T08:17:34;0.70;;;0.70;;
49840;SDS011;35738;49.890;5.930;2023-05-10T08:20:00;0.80;;;0.80;;
49840;SDS011;35738;49.890;5.930;2023-05-10T08:22:27;0.98;;;0.77;;
49840;SDS011;35738;49.890;5.930;2023-05-10T08:24:54;0.70;;;0.70;;
49840;SDS011;35738;49.890;5.930;2023-05-10T08:27:20;0.73;;;0.73;;
49840;SDS011;35738;49.890;5.930;2023-05-10T08:29:47;2.10;;;2.00;;
49840;SDS011;35738;49.890;5.930;2023-05-10T08:32:16;2.08;;;1.95;;
49840;SDS011;35738;49.890;5.930;2023-05-10T08:34:43;6.72;;;5.03;;
49840;SDS011;35738;49.890;5.930;2023-05-10T08:37:09;0.60;;;0.60;;
49840;SDS011;35738;49.890;5.930;2023-05-10T08:39:39;0.50;;;0.50;;
49840;SDS011;35738;49.890;5.930;2023-05-10T08:42:06;0.45;;;0.45;;
49840;SDS011;35738;49.890;5.930;2023-05-10T08:44:35;0.60;;;0.60;;
49840;SDS011;35738;49.890;5.930;2023-05-10T08:47:06;0.57;;;0.57;;
49840;SDS011;35738;49.890;5.930;2023-05-10T08:49:34;0.70;;;0.70;;
49840;SDS011;35738;49.890;5.930;2023-05-10T08:52:03;1.10;;;1.08;;
49840;SDS011;35738;49.890;5.930;2023-05-10T08:54:32;0.95;;;0.95;;
49840;SDS011;35738;49.890;5.930;2023-05-10T08:56:59;0.85;;;0.85;;
49840;SDS011;35738;49.890;5.930;2023-05-10T08:59:27;0.88;;;0.88;;
49840;SDS011;35738;49.890;5.930;2023-05-10T09:01:54;0.90;;;0.90;;
49840;SDS011;35738;49.890;5.930;2023-05-10T09:04:23;3.75;;;0.90;;
49840;SDS011;35738;49.890;5.930;2023-05-10T09:06:51;0.82;;;0.80;;
49840;SDS011;35738;49.890;5.930;2023-05-10T09:09:18;0.95;;;0.95;;
49840;SDS011;35738;49.890;5.930;2023-05-10T09:11:46;0.80;;;0.80;;
49840;SDS011;35738;49.890;5.930;2023-05-10T09:14:14;1.58;;;0.90;;
49840;SDS011;35738;49.890;5.930;2023-05-10T09:16:42;1.05;;;0.90;;
49840;SDS011;35738;49.890;5.930;2023-05-10T09:19:09;0.95;;;0.80;;
49840;SDS011;35738;49.890;5.930;2023-05-10T09:21:36;0.60;;;0.60;;
49840;SDS011;35738;49.890;5.930;2023-05-10T09:24:07;0.60;;;0.60;;
49840;SDS011;35738;49.890;5.930;2023-05-10T09:26:35;1.75;;;0.60;;
49840;SDS011;35738;49.890;5.930;2023-05-10T09:29:12;0.68;;;0.68;;
49840;SDS011;35738;49.890;5.930;2023-05-10T09:31:43;1.15;;;0.80;;
49840;SDS011;35738;49.890;5.930;2023-05-10T09:34:18;1.27;;;1.15;;
49840;SDS011;35738;49.890;5.930;2023-05-10T09:36:57;0.85;;;0.85;;
49840;SDS011;35738;49.890;5.930;2023-05-10T09:39:30;0.90;;;0.90;;
49840;SDS011;35738;49.890;5.930;2023-05-10T09:41:58;0.80;;;0.80;;
49840;SDS011;35738;49.890;5.930;2023-05-10T09:44:31;1.17;;;0.90;;
49840;SDS011;35738;49.890;5.930;2023-05-10T09:46:59;1.25;;;0.80;;
49840;SDS011;35738;49.890;5.930;2023-05-10T09:49:29;0.70;;;0.70;;
49840;SDS011;35738;49.890;5.930;2023-05-10T09:52:00;0.80;;;0.80;;
49840;SDS011;35738;49.890;5.930;2023-05-10T09:54:30;0.73;;;0.73;;
49840;SDS011;35738;49.890;5.930;2023-05-10T09:56:57;1.80;;;0.90;;
49840;SDS011;35738;49.890;5.930;2023-05-10T09:59:25;1.33;;;0.85;;
49840;SDS011;35738;49.890;5.930;2023-05-10T10:01:57;1.00;;;1.00;;
49840;SDS011;35738;49.890;5.930;2023-05-10T10:04:26;0.90;;;0.90;;
49840;SDS011;35738;49.890;5.930;2023-05-10T10:07:02;0.90;;;0.88;;
49840;SDS011;35738;49.890;5.930;2023-05-10T10:09:30;2.50;;;0.98;;
49840;SDS011;35738;49.890;5.930;2023-05-10T10:11:58;0.80;;;0.80;;
49840;SDS011;35738;49.890;5.930;2023-05-10T10:14:26;0.77;;;0.77;;
49840;SDS011;35738;49.890;5.930;2023-05-10T10:16:53;1.35;;;1.05;;
49840;SDS011;35738;49.890;5.930;2023-05-10T10:19:34;1.15;;;1.05;;
49840;SDS011;35738;49.890;5.930;2023-05-10T10:22:02;2.35;;;1.05;;
49840;SDS011;35738;49.890;5.930;2023-05-10T10:24:29;1.08;;;1.08;;
49840;SDS011;35738;49.890;5.930;2023-05-10T10:26:57;1.20;;;1.10;;
49840;SDS011;35738;49.890;5.930;2023-05-10T10:29:36;1.75;;;1.13;;
49840;SDS011;35738;49.890;5.930;2023-05-10T10:32:22;1.23;;;1.10;;
49840;SDS011;35738;49.890;5.930;2023-05-10T10:34:56;1.33;;;1.23;;
49840;SDS011;35738;49.890;5.930;2023-05-10T10:37:23;1.00;;;1.00;;
49840;SDS011;35738;49.890;5.930;2023-05-10T10:40:22;1.10;;;1.05;;
49840;SDS011;35738;49.890;5.930;2023-05-10T10:48:49;1.80;;;1.00;;
49840;SDS011;35738;49.890;5.930;2023-05-10T10:52:12;1.95;;;1.13;;
49840;SDS011;35738;49.890;5.930;2023-05-10T10:54:50;1.05;;;0.95;;
49840;SDS011;35738;49.890;5.930;2023-05-10T10:57:19;1.85;;;1.20;;
49840;SDS011;35738;49.890;5.930;2023-05-10T10:59:49;1.02;;;1.02;;
49840;SDS011;35738;49.890;5.930;2023-05-10T11:07:57;1.10;;;1.10;;
49840;SDS011;35738;49.890;5.930;2023-05-10T11:10:26;1.10;;;1.10;;
49840;SDS011;35738;49.890;5.930;2023-05-10T11:13:00;2.88;;;1.40;;
49840;SDS011;35738;49.890;5.930;2023-05-10T11:15:29;2.35;;;1.77;;
49840;SDS011;35738;49.890;5.930;2023-05-10T11:17:57;2.78;;;1.63;;
49840;SDS011;35738;49.890;5.930;2023-05-10T11:20:26;3.13;;;1.67;;
49840;SDS011;35738;49.890;5.930;2023-05-10T11:23:10;2.00;;;1.75;;
49840;SDS011;35738;49.890;5.930;2023-05-10T11:25:42;1.95;;;1.85;;
49840;SDS011;35738;49.890;5.930;2023-05-10T11:28:12;4.57;;;2.20;;
49840;SDS011;35738;49.890;5.930;2023-05-10T11:30:43;2.40;;;2.20;;
49840;SDS011;35738;49.890;5.930;2023-05-10T11:33:14;4.57;;;2.40;;
49840;SDS011;35738;49.890;5.930;2023-05-10T11:35:45;4.55;;;2.30;;
49840;SDS011;35738;49.890;5.930;2023-05-10T11:38:12;3.88;;;2.53;;
49840;SDS011;35738;49.890;5.930;2023-05-10T11:40:40;3.70;;;2.65;;
49840;SDS011;35738;49.890;5.930;2023-05-10T11:43:09;5.20;;;3.03;;
49840;SDS011;35738;49.890;5.930;2023-05-10T11:45:37;3.13;;;2.17;;
49840;SDS011;35738;49.890;5.930;2023-05-10T11:48:04;4.30;;;2.40;;
49840;SDS011;35738;49.890;5.930;2023-05-10T11:50:31;2.83;;;2.17;;
49840;SDS011;35738;49.890;5.930;2023-05-10T11:52:59;2.38;;;2.05;;
49840;SDS011;35738;49.890;5.930;2023-05-10T11:55:27;2.40;;;2.20;;
49840;SDS011;35738;49.890;5.930;2023-05-10T11:57:59;3.70;;;2.20;;
49840;SDS011;35738;49.890;5.930;2023-05-10T12:00:27;2.75;;;1.60;;
49840;SDS011;35738;49.890;5.930;2023-05-10T12:02:54;2.45;;;1.70;;
49840;SDS011;35738;49.890;5.930;2023-05-10T12:05:22;2.60;;;1.65;;
49840;SDS011;35738;49.890;5.930;2023-05-10T12:07:49;2.63;;;1.60;;
49840;SDS011;35738;49.890;5.930;2023-05-10T12:10:15;2.88;;;1.60;;
49840;SDS011;35738;49.890;5.930;2023-05-10T12:12:46;2.25;;;1.40;;
49840;SDS011;35738;49.890;5.930;2023-05-10T12:15:17;3.40;;;1.88;;
49840;SDS011;35738;49.890;5.930;2023-05-10T12:17:46;3.78;;;1.80;;
49840;SDS011;35738;49.890;5.930;2023-05-10T12:20:18;2.55;;;1.65;;
49840;SDS011;35738;49.890;5.930;2023-05-10T12:22:53;3.80;;;2.20;;
49840;SDS011;35738;49.890;5.930;2023-05-10T12:25:29;2.25;;;1.75;;
49840;SDS011;35738;49.890;5.930;2023-05-10T12:27:58;3.40;;;1.92;;
49840;SDS011;35738;49.890;5.930;2023-05-10T12:30:27;3.00;;;1.67;;
49840;SDS011;35738;49.890;5.930;2023-05-10T12:33:02;3.13;;;1.70;;
49840;SDS011;35738;49.890;5.930;2023-05-10T12:35:48;4.75;;;1.80;;
49840;SDS011;35738;49.890;5.930;2023-05-10T12:38:26;1.83;;;1.50;;
49840;SDS011;35738;49.890;5.930;2023-05-10T12:40:56;3.05;;;1.63;;
49840;SDS011;35738;49.890;5.930;2023-05-10T12:43:27;3.72;;;2.00;;
49840;SDS011;35738;49.890;5.930;2023-05-10T12:45:55;1.85;;;1.73;;
49840;SDS011;35738;49.890;5.930;2023-05-10T12:48:22;6.15;;;1.90;;
49840;SDS011;35738;49.890;5.930;2023-05-10T12:50:49;3.25;;;1.60;;
49840;SDS011;35738;49.890;5.930;2023-05-10T12:53:16;3.55;;;1.45;;
49840;SDS011;35738;49.890;5.930;2023-05-10T12:55:43;4.75;;;1.60;;
49840;SDS011;35738;49.890;5.930;2023-05-10T12:58:10;2.72;;;1.70;;
49840;SDS011;35738;49.890;5.930;2023-05-10T13:00:53;2.25;;;1.38;;
49840;SDS011;35738;49.890;5.930;2023-05-10T13:03:20;2.72;;;1.42;;
49840;SDS011;35738;49.890;5.930;2023-05-10T13:05:46;5.05;;;1.88;;
49840;SDS011;35738;49.890;5.930;2023-05-10T13:08:13;3.05;;;1.50;;
49840;SDS011;35738;49.890;5.930;2023-05-10T13:10:40;3.35;;;1.30;;
49840;SDS011;35738;49.890;5.930;2023-05-10T13:13:07;2.08;;;1.63;;
49840;SDS011;35738;49.890;5.930;2023-05-10T13:15:34;3.55;;;2.05;;
49840;SDS011;35738;49.890;5.930;2023-05-10T13:18:02;2.65;;;1.70;;
49840;SDS011;35738;49.890;5.930;2023-05-10T13:20:29;2.15;;;1.42;;
49840;SDS011;35738;49.890;5.930;2023-05-10T13:22:56;3.38;;;1.40;;
49840;SDS011;35738;49.890;5.930;2023-05-10T13:25:24;1.42;;;1.30;;
49840;SDS011;35738;49.890;5.930;2023-05-10T13:27:51;2.55;;;1.20;;
49840;SDS011;35738;49.890;5.930;2023-05-10T13:30:18;2.75;;;1.50;;
49840;SDS011;35738;49.890;5.930;2023-05-10T13:32:44;3.13;;;1.40;;
49840;SDS011;35738;49.890;5.930;2023-05-10T13:35:11;2.22;;;1.17;;
49840;SDS011;35738;49.890;5.930;2023-05-10T13:37:38;1.33;;;1.05;;
49840;SDS011;35738;49.890;5.930;2023-05-10T13:40:05;1.95;;;1.00;;
49840;SDS011;35738;49.890;5.930;2023-05-10T13:42:32;3.10;;;1.13;;
49840;SDS011;35738;49.890;5.930;2023-05-10T13:45:00;3.53;;;1.10;;
49840;SDS011;35738;49.890;5.930;2023-05-10T13:47:30;1.60;;;1.20;;
49840;SDS011;35738;49.890;5.930;2023-05-10T13:49:57;3.90;;;1.10;;
49840;SDS011;35738;49.890;5.930;2023-05-10T13:52:25;2.42;;;1.00;;
49840;SDS011;35738;49.890;5.930;2023-05-10T13:54:52;2.17;;;1.20;;
49840;SDS011;35738;49.890;5.930;2023-05-10T13:57:21;1.27;;;0.90;;
49840;SDS011;35738;49.890;5.930;2023-05-10T13:59:50;1.65;;;1.10;;
49840;SDS011;35738;49.890;5.930;2023-05-10T14:02:16;1.60;;;0.93;;
49840;SDS011;35738;49.890;5.930;2023-05-10T14:04:43;0.95;;;0.90;;
49840;SDS011;35738;49.890;5.930;2023-05-10T14:07:10;3.08;;;1.15;;
49840;SDS011;35738;49.890;5.930;2023-05-10T14:09:36;3.20;;;1.30;;
49840;SDS011;35738;49.890;5.930;2023-05-10T14:12:18;2.65;;;1.20;;
49840;SDS011;35738;49.890;5.930;2023-05-10T14:14:47;1.77;;;1.13;;
49840;SDS011;35738;49.890;5.930;2023-05-10T14:17:14;3.22;;;1.10;;
49840;SDS011;35738;49.890;5.930;2023-05-10T14:19:41;5.60;;;1.30;;
49840;SDS011;35738;49.890;5.930;2023-05-10T14:22:07;2.28;;;1.20;;
49840;SDS011;35738;49.890;5.930;2023-05-10T14:24:34;2.55;;;1.00;;
49840;SDS011;35738;49.890;5.930;2023-05-10T14:27:01;2.35;;;0.98;;
49840;SDS011;35738;49.890;5.930;2023-05-10T14:29:27;1.58;;;1.00;;
49840;SDS011;35738;49.890;5.930;2023-05-10T14:31:54;1.27;;;1.00;;
49840;SDS011;35738;49.890;5.930;2023-05-10T14:34:20;7.43;;;1.20;;
49840;SDS011;35738;49.890;5.930;2023-05-10T14:36:47;3.50;;;1.10;;
49840;SDS011;35738;49.890;5.930;2023-05-10T14:39:13;1.27;;;0.93;;
49840;SDS011;35738;49.890;5.930;2023-05-10T14:41:40;1.95;;;0.90;;
49840;SDS011;35738;49.890;5.930;2023-05-10T14:44:09;1.95;;;1.23;;
49840;SDS011;35738;49.890;5.930;2023-05-10T14:46:36;1.75;;;1.00;;
49840;SDS011;35738;49.890;5.930;2023-05-10T14:49:06;1.40;;;1.00;;
49840;SDS011;35738;49.890;5.930;2023-05-10T14:51:32;2.95;;;1.05;;
49840;SDS011;35738;49.890;5.930;2023-05-10T14:53:59;2.35;;;0.90;;
49840;SDS011;35738;49.890;5.930;2023-05-10T14:56:27;4.82;;;1.20;;
49840;SDS011;35738;49.890;5.930;2023-05-10T14:58:54;3.55;;;0.93;;
49840;SDS011;35738;49.890;5.930;2023-05-10T15:01:22;2.28;;;1.20;;
49840;SDS011;35738;49.890;5.930;2023-05-10T15:03:49;2.47;;;0.95;;
49840;SDS011;35738;49.890;5.930;2023-05-10T15:06:17;1.02;;;0.80;;
49840;SDS011;35738;49.890;5.930;2023-05-10T15:08:49;4.53;;;1.20;;
49840;SDS011;35738;49.890;5.930;2023-05-10T15:11:16;1.60;;;1.05;;
49840;SDS011;35738;49.890;5.930;2023-05-10T15:13:43;1.42;;;1.23;;
49840;SDS011;35738;49.890;5.930;2023-05-10T15:16:09;0.95;;;0.95;;
49840;SDS011;35738;49.890;5.930;2023-05-10T15:18:36;2.58;;;1.10;;
49840;SDS011;35738;49.890;5.930;2023-05-10T15:21:03;1.60;;;1.00;;
49840;SDS011;35738;49.890;5.930;2023-05-10T15:23:30;2.03;;;1.15;;
49840;SDS011;35738;49.890;5.930;2023-05-10T15:25:56;1.58;;;1.20;;